Time;durP1;ratioP1;P1;durP2;ratioP2;P2;SDS_P1;SDS_P2;PMS_P1;PMS_P2;Temp;Humidity;BMP_temperature;BMP_pressure;BME280_temperature;BME280_humidity;BME280_pressure;Samples;Min_cycle;Max_cycle;Signal;HPM_P1;HPM_P2
2021/01/20 00:00:33;;;;;;;6.78;3.42;;;;;;;0.66;69.17;96057.28;5053420;28;20037;-72
2021/01/20 00:02:59;;;;;;;7.00;4.18;;;;;;;0.66;69.09;96062.44;5051772;28;20041;-71
2021/01/20 00:05:25;;;;;;;5.15;3.38;;;;;;;0.64;69.15;96056.63;5052051;28;20057;-72
2021/01/20 00:07:51;;;;;;;5.00;2.95;;;;;;;0.62;69.06;96055.19;5052437;28;20049;-72
2021/01/20 00:10:17;;;;;;;5.82;3.22;;;;;;;0.59;69.14;96046.81;5052620;28;20037;-72
2021/01/20 00:12:45;;;;;;;4.63;3.47;;;;;;;0.57;69.23;96043.59;5052593;28;20045;-72
2021/01/20 00:15:23;;;;;;;4.65;3.10;;;;;;;0.56;69.62;96051.50;5052261;28;20482;-72
2021/01/20 00:17:49;;;;;;;6.30;2.97;;;;;;;0.53;69.35;96051.84;5051884;28;20485;-72
2021/01/20 00:20:15;;;;;;;3.95;2.78;;;;;;;0.50;69.37;96041.81;5051945;28;20052;-72
2021/01/20 00:22:42;;;;;;;4.40;2.92;;;;;;;0.47;69.53;96048.13;5052560;28;20064;-71
2021/01/20 00:25:10;;;;;;;3.65;2.65;;;;;;;0.45;69.55;96046.69;5052102;28;20049;-72
2021/01/20 00:27:36;;;;;;;3.85;2.80;;;;;;;0.45;69.76;96044.91;5053117;28;20045;-71
2021/01/20 00:30:07;;;;;;;4.03;2.80;;;;;;;0.44;69.97;96045.84;5052326;28;20045;-72
2021/01/20 00:32:33;;;;;;;3.65;2.90;;;;;;;0.44;69.89;96039.91;5051448;28;20048;-72
2021/01/20 00:35:00;;;;;;;3.88;2.60;;;;;;;0.46;70.12;96043.91;5052336;28;20040;-71
2021/01/20 00:37:27;;;;;;;3.47;2.55;;;;;;;0.50;70.10;96046.97;5052459;28;20041;-72
2021/01/20 00:39:53;;;;;;;3.60;2.80;;;;;;;0.52;70.18;96038.09;5051773;28;20068;-72
2021/01/20 00:42:19;;;;;;;3.47;2.20;;;;;;;0.53;70.14;96023.44;5052333;28;20045;-71
2021/01/20 00:44:45;;;;;;;4.43;2.75;;;;;;;0.55;70.24;96024.09;5052646;28;20044;-72
2021/01/20 00:47:11;;;;;;;3.88;2.67;;;;;;;0.54;70.37;96023.25;5034065;28;20045;-71
2021/01/20 00:49:37;;;;;;;2.80;2.40;;;;;;;0.55;70.29;96017.16;5052213;28;20048;-72
2021/01/20 00:52:04;;;;;;;5.93;2.78;;;;;;;0.57;70.44;96015.22;5053233;28;20454;-72
2021/01/20 00:54:30;;;;;;;3.70;2.58;;;;;;;0.60;70.44;96006.31;5053069;28;20033;-72
2021/01/20 00:56:56;;;;;;;4.45;2.83;;;;;;;0.62;70.50;96008.75;5055902;28;20045;-71
2021/01/20 00:59:22;;;;;;;3.00;2.45;;;;;;;0.63;70.55;96007.75;5055254;28;20049;-72
2021/01/20 01:01:48;;;;;;;3.78;2.72;;;;;;;0.63;70.51;96003.44;5056033;28;20041;-72
2021/01/20 01:04:14;;;;;;;3.35;2.50;;;;;;;0.62;70.60;96004.38;5055124;28;20473;-72
2021/01/20 01:06:41;;;;;;;4.22;2.55;;;;;;;0.60;70.56;96012.28;5055102;28;20501;-72
2021/01/20 01:09:07;;;;;;;3.92;2.65;;;;;;;0.60;70.80;96011.50;5054875;28;20501;-71
2021/01/20 01:11:33;;;;;;;3.17;2.50;;;;;;;0.59;70.77;95999.56;5055376;28;20045;-71
2021/01/20 01:13:59;;;;;;;3.15;2.53;;;;;;;0.60;70.71;96008.91;5055173;28;20060;-71
2021/01/20 01:16:25;;;;;;;4.10;2.38;;;;;;;0.58;70.89;96008.25;5055053;28;20115;-72
2021/01/20 01:18:51;;;;;;;5.95;2.58;;;;;;;0.58;70.90;95996.16;5054696;28;20060;-71
2021/01/20 01:21:18;;;;;;;3.38;2.63;;;;;;;0.56;71.08;95992.94;5055916;28;20033;-72
2021/01/20 01:23:44;;;;;;;4.45;2.70;;;;;;;0.55;71.07;95995.72;5072139;28;20040;-72
2021/01/20 01:26:10;;;;;;;5.28;2.65;;;;;;;0.53;71.13;95992.50;5075584;28;20048;-71
2021/01/20 01:28:37;;;;;;;4.32;2.28;;;;;;;0.53;71.25;95995.88;5074769;28;20048;-71
2021/01/20 01:31:03;;;;;;;4.50;2.60;;;;;;;0.54;71.34;95991.50;5075449;28;20063;-72
2021/01/20 01:33:31;;;;;;;3.38;2.42;;;;;;;0.53;71.29;95997.66;5075655;28;20032;-72
2021/01/20 01:35:58;;;;;;;3.58;2.72;;;;;;;0.52;71.37;95986.50;5075157;28;20389;-71
2021/01/20 01:38:25;;;;;;;3.72;2.85;;;;;;;0.53;71.51;95997.66;5074896;28;20056;-72
2021/01/20 01:40:51;;;;;;;4.93;3.00;;;;;;;0.53;71.57;95985.53;5075368;28;20420;-72
2021/01/20 01:43:17;;;;;;;3.92;3.00;;;;;;;0.55;71.63;95990.56;5057279;28;20071;-72
2021/01/20 01:45:44;;;;;;;3.88;2.55;;;;;;;0.53;71.55;95982.16;5075166;28;20033;-72
2021/01/20 01:48:10;;;;;;;2.92;2.55;;;;;;;0.53;71.62;95982.97;5075341;28;20036;-72
2021/01/20 01:50:36;;;;;;;4.47;2.90;;;;;;;0.53;71.70;95984.75;5075156;28;20409;-72
2021/01/20 01:53:03;;;;;;;3.97;3.10;;;;;;;0.53;71.77;95982.97;5074629;28;20397;-72
2021/01/20 01:55:31;;;;;;;5.00;3.20;;;;;;;0.53;71.73;95982.16;5075160;28;20049;-71
2021/01/20 01:57:57;;;;;;;4.63;2.92;;;;;;;0.52;71.74;95978.75;5073306;28;20400;-72
2021/01/20 02:00:23;;;;;;;8.15;3.10;;;;;;;0.52;71.86;95972.81;5074457;28;20044;-72
2021/01/20 02:02:50;;;;;;;5.20;3.17;;;;;;;0.52;71.95;95976.19;5074791;28;20052;-72
2021/01/20 02:05:16;;;;;;;5.72;3.30;;;;;;;0.51;72.00;95972.00;5074850;28;20045;-71
2021/01/20 02:07:46;;;;;;;4.80;3.00;;;;;;;0.52;72.37;95968.44;5073671;28;20492;-72
2021/01/20 02:10:13;;;;;;;4.57;3.05;;;;;;;0.52;72.08;95965.88;5074527;28;20366;-71
2021/01/20 02:13:02;;;;;;;5.43;2.97;;;;;;;0.50;72.15;95965.22;5074727;28;20041;-71
2021/01/20 02:15:52;;;;;;;5.30;3.03;;;;;;;0.49;73.09;95979.13;5063360;28;20393;-72
2021/01/20 02:18:25;;;;;;;5.03;2.97;;;;;;;0.48;72.88;95966.38;5074725;28;20036;-71
2021/01/20 02:21:17;;;;;;;3.30;2.75;;;;;;;0.52;73.63;95968.44;5074035;28;20051;-72
2021/01/20 02:23:44;;;;;;;4.18;2.85;;;;;;;0.54;72.46;95970.88;5055757;28;20064;-72
2021/01/20 02:26:25;;;;;;;3.67;2.85;;;;;;;0.56;73.25;95961.97;5054790;28;20037;-72
2021/01/20 02:29:17;;;;;;;5.88;3.20;;;;;;;0.57;73.11;95973.13;5053824;28;20045;-72
2021/01/20 02:31:45;;;;;;;4.53;2.85;;;;;;;0.56;72.46;95966.34;5054766;28;20048;-71
2021/01/20 02:34:14;;;;;;;4.78;3.33;;;;;;;0.58;72.58;95965.19;5053140;28;20045;-72
2021/01/20 02:36:42;;;;;;;5.30;3.50;;;;;;;0.59;72.57;95963.44;5054507;28;20029;-72
2021/01/20 02:39:09;;;;;;;4.45;3.70;;;;;;;0.60;72.54;95965.03;5053079;28;20048;-72
2021/01/20 02:41:35;;;;;;;8.63;4.20;;;;;;;0.61;73.08;95966.66;5053806;28;20067;-72
2021/01/20 02:44:03;;;;;;;6.47;3.95;;;;;;;0.59;72.73;95959.09;5053351;28;20037;-72
2021/01/20 02:46:30;;;;;;;6.15;3.22;;;;;;;0.59;72.62;95960.88;5054247;28;20033;-72
2021/01/20 02:48:58;;;;;;;4.97;3.83;;;;;;;0.56;72.83;95953.44;5054032;28;20049;-71
2021/01/20 02:51:45;;;;;;;8.90;4.20;;;;;;;0.55;72.86;95950.06;5053086;28;20053;-72
2021/01/20 02:54:14;;;;;;;7.53;3.88;;;;;;;0.54;72.94;95950.22;5051834;28;20045;-72
2021/01/20 02:56:46;;;;;;;6.18;4.28;;;;;;;0.54;72.96;95942.50;5035295;28;20048;-72
2021/01/20 02:59:13;;;;;;;4.25;3.42;;;;;;;0.51;73.13;95945.41;5053607;28;20061;-71
2021/01/20 03:01:48;;;;;;;7.43;3.92;;;;;;;0.50;73.41;95949.75;5053648;28;20041;-72
2021/01/20 03:04:16;;;;;;;5.50;3.95;;;;;;;0.47;73.05;95955.25;5053236;28;20045;-72
2021/01/20 03:06:46;;;;;;;6.97;4.43;;;;;;;0.46;73.14;95945.91;5054002;28;21089;-71
2021/01/20 03:09:14;;;;;;;7.18;4.45;;;;;;;0.44;73.19;95953.00;5053179;28;20444;-72
2021/01/20 03:11:46;;;;;;;5.30;3.60;;;;;;;0.44;73.46;95958.16;5053924;28;20037;-71
2021/01/20 03:14:14;;;;;;;6.40;4.00;;;;;;;0.46;73.53;95958.00;5053580;28;20469;-72
2021/01/20 03:16:40;;;;;;;7.13;3.97;;;;;;;0.45;73.74;95956.41;5052732;28;20045;-71
2021/01/20 03:19:06;;;;;;;6.05;3.95;;;;;;;0.48;73.46;95956.06;5053146;28;20151;-73
2021/01/20 03:21:32;;;;;;;5.70;3.92;;;;;;;0.46;73.48;95958.78;5051955;28;20052;-72
2021/01/20 03:23:58;;;;;;;6.38;4.22;;;;;;;0.46;73.39;95955.41;5052779;28;20405;-71
2021/01/20 03:26:25;;;;;;;5.80;4.07;;;;;;;0.44;73.53;95947.84;5052724;28;20061;-71
2021/01/20 03:28:51;;;;;;;6.13;4.07;;;;;;;0.46;73.45;95950.25;5052853;28;20052;-71
2021/01/20 03:31:17;;;;;;;6.28;4.03;;;;;;;0.45;73.55;95949.47;5052046;28;20079;-71
2021/01/20 03:33:43;;;;;;;6.25;4.05;;;;;;;0.45;73.60;95949.47;5053513;28;20045;-71
2021/01/20 03:36:09;;;;;;;4.88;3.80;;;;;;;0.43;73.57;95945.44;5043825;28;20060;-72
2021/01/20 03:38:36;;;;;;;5.30;4.03;;;;;;;0.44;73.52;95947.03;5052157;28;20482;-72
2021/01/20 03:41:02;;;;;;;6.68;4.22;;;;;;;0.40;73.49;95931.09;5052885;28;20057;-71
2021/01/20 03:43:28;;;;;;;6.90;4.35;;;;;;;0.41;73.31;95927.53;5053222;28;20040;-71
2021/01/20 03:45:55;;;;;;;6.85;4.40;;;;;;;0.40;73.67;95933.69;5053172;28;20040;-71
2021/01/20 03:48:21;;;;;;;8.07;4.28;;;;;;;0.38;73.60;95927.88;5053437;28;20045;-71
2021/01/20 03:50:47;;;;;;;6.43;4.47;;;;;;;0.37;73.58;95921.91;5036030;28;20456;-71
2021/01/20 03:53:13;;;;;;;7.43;4.70;;;;;;;0.35;73.51;95920.47;5051865;28;20045;-72
2021/01/20 03:55:39;;;;;;;7.97;4.47;;;;;;;0.35;73.76;95912.72;5053332;28;20056;-71
2021/01/20 03:58:06;;;;;;;6.70;4.32;;;;;;;0.37;73.87;95909.00;5053062;28;20037;-73
2021/01/20 04:00:32;;;;;;;6.57;4.40;;;;;;;0.39;73.97;95908.84;5052659;28;20045;-72
2021/01/20 04:02:58;;;;;;;7.10;4.30;;;;;;;0.41;73.90;95914.66;5052296;28;20052;-72
2021/01/20 04:05:24;;;;;;;6.40;4.05;;;;;;;0.43;73.98;95910.13;5052350;28;20461;-72
2021/01/20 04:07:51;;;;;;;7.32;4.50;;;;;;;0.42;73.95;95908.53;5052965;28;20045;-71
2021/01/20 04:10:17;;;;;;;5.93;4.15;;;;;;;0.40;73.83;95903.53;5053672;28;20041;-71
2021/01/20 04:12:43;;;;;;;6.05;4.25;;;;;;;0.38;73.87;95902.91;5051799;28;20045;-72
2021/01/20 04:15:10;;;;;;;6.30;4.47;;;;;;;0.36;73.92;95898.88;5051999;28;20051;-71
2021/01/20 04:17:36;;;;;;;5.88;3.70;;;;;;;0.37;74.20;95896.13;5052740;28;20423;-71
2021/01/20 04:20:05;;;;;;;6.55;4.47;;;;;;;0.39;74.20;95893.38;5052884;28;20040;-72
2021/01/20 04:22:32;;;;;;;5.88;4.00;;;;;;;0.44;74.28;95898.81;5051845;28;20486;-71
2021/01/20 04:24:58;;;;;;;7.57;4.43;;;;;;;0.48;74.17;95896.72;5052116;28;20496;-72
2021/01/20 04:27:24;;;;;;;8.38;4.40;;;;;;;0.49;74.13;95890.59;5052396;28;20057;-71
2021/01/20 04:29:51;;;;;;;8.02;4.15;;;;;;;0.52;73.97;95898.00;5053406;28;20389;-71
2021/01/20 04:32:17;;;;;;;6.30;4.15;;;;;;;0.50;74.07;95887.84;5056172;28;20389;-71
2021/01/20 04:34:43;;;;;;;7.28;4.47;;;;;;;0.51;73.93;95888.66;5055718;28;20055;-71
2021/01/20 04:37:09;;;;;;;7.78;4.63;;;;;;;0.49;74.06;95891.41;5055770;28;20045;-71
2021/01/20 04:39:36;;;;;;;5.93;3.92;;;;;;;0.50;74.02;95887.84;5038326;28;20053;-71
2021/01/20 04:42:05;;;;;;;9.90;4.93;;;;;;;0.48;73.88;95876.88;5055935;28;20053;-71
2021/01/20 04:44:31;;;;;;;6.50;4.45;;;;;;;0.48;73.95;95873.50;5038161;28;20053;-71
2021/01/20 04:46:57;;;;;;;6.78;4.47;;;;;;;0.45;73.89;95876.44;5056669;28;20044;-71
2021/01/20 04:49:26;;;;;;;7.55;3.92;;;;;;;0.43;73.91;95884.34;5055734;28;20064;-71
2021/01/20 04:51:54;;;;;;;5.88;4.18;;;;;;;0.44;74.14;95875.59;5055651;28;20060;-71
2021/01/20 04:54:22;;;;;;;6.80;4.13;;;;;;;0.45;73.84;95874.66;5055075;28;20041;-71
2021/01/20 04:56:49;;;;;;;7.05;4.10;;;;;;;0.45;74.08;95876.44;5056073;28;20037;-72
2021/01/20 04:59:16;;;;;;;6.43;4.50;;;;;;;0.46;74.03;95883.97;5055479;28;20041;-71
2021/01/20 05:01:43;;;;;;;6.38;4.55;;;;;;;0.46;74.01;95880.59;5056371;28;20037;-71
2021/01/20 05:04:10;;;;;;;7.55;4.65;;;;;;;0.45;74.05;95879.00;5054705;28;20052;-71
2021/01/20 05:06:37;;;;;;;8.90;4.88;;;;;;;0.45;74.09;95877.22;5055631;28;20064;-72
2021/01/20 05:09:03;;;;;;;7.20;5.10;;;;;;;0.43;74.06;95871.44;5055422;28;20486;-71
2021/01/20 05:11:43;;;;;;;7.25;4.60;;;;;;;0.43;74.07;95874.00;5055690;28;20389;-71
2021/01/20 05:14:13;;;;;;;8.10;4.75;;;;;;;0.43;74.16;95880.97;5054908;28;20068;-71
2021/01/20 05:16:41;;;;;;;6.55;4.65;;;;;;;0.42;74.29;95875.00;5055831;28;20037;-71
2021/01/20 05:19:08;;;;;;;7.75;5.05;;;;;;;0.42;74.24;95874.19;5055751;28;20391;-71
2021/01/20 05:21:34;;;;;;;7.05;5.18;;;;;;;0.42;74.12;95871.59;5054733;28;20063;-72
2021/01/20 05:24:22;;;;;;;7.70;5.00;;;;;;;0.43;74.48;95878.38;5054563;28;20489;-71
2021/01/20 05:26:50;;;;;;;6.93;4.53;;;;;;;0.44;74.26;95877.38;5045627;28;20048;-71
2021/01/20 05:29:17;;;;;;;8.13;5.18;;;;;;;0.46;74.25;95880.59;5055386;28;20049;-72
2021/01/20 05:31:43;;;;;;;8.00;5.35;;;;;;;0.43;74.07;95874.00;5055733;28;20029;-71
2021/01/20 05:34:29;;;;;;;6.50;4.60;;;;;;;0.44;74.01;95869.66;5054882;28;20481;-71
2021/01/20 05:37:14;;;;;;;8.85;5.55;;;;;;;0.42;74.21;95872.41;5043659;28;20044;-72
2021/01/20 05:39:40;;;;;;;7.90;5.65;;;;;;;0.42;74.14;95872.41;5055336;28;20032;-71
2021/01/20 05:42:09;;;;;;;9.02;5.40;;;;;;;0.43;74.31;95876.59;5055534;28;20053;-71
2021/01/20 05:44:36;;;;;;;8.27;5.78;;;;;;;0.43;74.18;95868.84;5054382;28;20041;-71
2021/01/20 05:47:07;;;;;;;10.35;5.38;;;;;;;0.44;74.14;95867.06;5054682;28;20401;-71
2021/01/20 05:49:34;;;;;;;7.10;5.18;;;;;;;0.44;74.14;95865.28;5055325;28;20033;-71
2021/01/20 05:52:01;;;;;;;9.63;6.10;;;;;;;0.45;74.06;95863.53;5054873;28;20041;-72
2021/01/20 05:54:38;;;;;;;9.68;5.68;;;;;;;0.44;73.99;95857.56;5054920;28;20047;-71
2021/01/20 05:57:10;;;;;;;9.02;5.30;;;;;;;0.45;73.97;95864.34;5053943;28;20045;-71
2021/01/20 05:59:36;;;;;;;10.18;6.25;;;;;;;0.45;73.87;95850.63;5054255;28;20417;-71
2021/01/20 06:02:03;;;;;;;10.07;6.40;;;;;;;0.44;74.06;95854.97;5054125;28;20048;-71
2021/01/20 06:04:33;;;;;;;14.00;6.85;;;;;;;0.45;73.88;95861.75;5055380;28;20033;-71
2021/01/20 06:07:02;;;;;;;8.60;5.82;;;;;;;0.44;73.97;95859.34;5054524;28;20049;-72
2021/01/20 06:09:30;;;;;;;8.63;6.10;;;;;;;0.44;73.96;95851.59;5055112;28;20048;-71
2021/01/20 06:11:56;;;;;;;10.30;6.38;;;;;;;0.44;73.91;95854.19;5054143;28;20048;-71
2021/01/20 06:14:22;;;;;;;12.43;6.68;;;;;;;0.43;73.85;95847.44;5054759;28;20055;-72
2021/01/20 06:16:52;;;;;;;10.32;6.47;;;;;;;0.42;74.00;95854.38;5054380;28;20049;-71
2021/01/20 06:19:20;;;;;;;9.35;6.20;;;;;;;0.43;74.02;95857.75;5054404;28;20413;-71
2021/01/20 06:21:49;;;;;;;11.10;6.82;;;;;;;0.43;73.97;95860.31;5053582;28;20405;-71
2021/01/20 06:24:30;;;;;;;9.90;6.05;;;;;;;0.43;73.86;95852.59;5054479;28;20068;-71
2021/01/20 06:26:59;;;;;;;10.52;6.07;;;;;;;0.45;73.86;95855.81;5053899;28;20489;-71
2021/01/20 06:29:29;;;;;;;8.52;5.90;;;;;;;0.46;73.99;95847.06;5054575;28;20033;-72
2021/01/20 06:31:58;;;;;;;8.30;6.07;;;;;;;0.46;73.95;95852.22;5054482;28;20040;-72
2021/01/20 06:34:24;;;;;;;11.90;6.57;;;;;;;0.48;73.89;95847.72;5036777;28;20044;-71
2021/01/20 06:36:50;;;;;;;10.43;6.13;;;;;;;0.50;73.82;95854.31;5054918;28;20382;-71
2021/01/20 06:39:25;;;;;;;11.00;6.65;;;;;;;0.54;73.88;95852.19;5053379;28;20056;-71
2021/01/20 06:41:52;;;;;;;10.20;6.47;;;;;;;0.59;74.19;95852.50;5054014;28;20043;-72
2021/01/20 06:44:19;;;;;;;8.55;6.47;;;;;;;0.60;74.16;95846.34;5053270;28;20056;-71
2021/01/20 06:46:57;;;;;;;9.93;6.95;;;;;;;0.63;74.19;95856.34;5054067;28;20037;-71
2021/01/20 06:49:25;;;;;;;7.82;6.00;;;;;;;0.64;74.21;95847.63;5053016;28;20044;-71
2021/01/20 06:52:16;;;;;;;10.05;6.30;;;;;;;0.65;74.39;95844.09;5052644;28;20041;-71
2021/01/20 06:54:44;;;;;;;9.13;6.43;;;;;;;0.64;74.13;95845.03;5042779;28;20029;-71
2021/01/20 06:57:31;;;;;;;10.65;6.65;;;;;;;0.64;74.62;95836.50;5053962;28;20370;-71
2021/01/20 07:00:15;;;;;;;10.82;6.72;;;;;;;0.65;73.57;95838.09;5053709;28;20037;-73
2021/01/20 07:03:02;;;;;;;12.60;6.57;;;;;;;0.64;74.16;95834.72;5053789;28;20044;-71
2021/01/20 07:05:36;;;;;;;12.30;7.30;;;;;;;0.66;73.96;95826.81;5044670;28;20055;-71
2021/01/20 07:08:04;;;;;;;11.60;6.82;;;;;;;0.65;74.19;95828.59;5053073;28;20484;-71
2021/01/20 07:11:01;;;;;;;11.55;7.03;;;;;;;0.65;74.25;95825.19;5053820;28;20041;-74
2021/01/20 07:13:34;;;;;;;10.27;6.45;;;;;;;0.65;74.15;95830.34;5032851;28;20055;-71
2021/01/20 07:16:03;;;;;;;8.43;5.70;;;;;;;0.65;73.94;95832.94;5053540;28;20036;-71
2021/01/20 07:18:30;;;;;;;10.10;6.80;;;;;;;0.63;74.13;95827.97;5052706;28;20370;-71
2021/01/20 07:20:57;;;;;;;13.73;6.75;;;;;;;0.64;74.26;95833.94;5052218;28;20437;-72
2021/01/20 07:23:23;;;;;;;11.20;6.95;;;;;;;0.63;74.34;95827.97;5054957;28;20049;-71
2021/01/20 07:25:52;;;;;;;12.25;6.95;;;;;;;0.62;74.32;95822.97;5052683;28;20071;-71
2021/01/20 07:28:20;;;;;;;11.13;6.93;;;;;;;0.63;74.33;95824.56;5052175;28;20044;-71
2021/01/20 07:30:46;;;;;;;12.15;7.28;;;;;;;0.64;74.14;95821.81;5052954;28;20043;-71
2021/01/20 07:33:20;;;;;;;10.25;7.07;;;;;;;0.66;74.49;95821.66;5052172;28;20047;-71
2021/01/20 07:35:47;;;;;;;10.85;7.25;;;;;;;0.67;74.30;95808.56;5053305;28;20037;-72
2021/01/20 07:38:13;;;;;;;11.18;7.63;;;;;;;0.70;74.30;95810.03;5052239;28;20049;-71
2021/01/20 07:40:42;;;;;;;10.88;7.03;;;;;;;0.70;74.32;95810.03;5052029;28;20045;-72
2021/01/20 07:43:19;;;;;;;11.38;6.85;;;;;;;0.72;74.63;95805.50;5052312;28;20049;-71
2021/01/20 07:45:46;;;;;;;11.77;7.43;;;;;;;0.74;74.33;95806.13;5053258;28;20052;-72
2021/01/20 07:48:12;;;;;;;12.52;6.65;;;;;;;0.76;74.49;95810.13;5053157;28;20048;-72
2021/01/20 07:50:48;;;;;;;9.85;6.53;;;;;;;0.79;73.60;95804.63;5052200;28;20094;-72
2021/01/20 07:53:17;;;;;;;11.05;6.82;;;;;;;0.81;73.91;95814.78;5052225;28;20045;-71
2021/01/20 07:55:52;;;;;;;15.68;8.40;;;;;;;0.84;73.62;95811.03;5053101;28;20041;-72
2021/01/20 07:58:24;;;;;;;34.33;16.30;;;;;;;0.89;73.75;95816.50;5053258;28;20052;-74
2021/01/20 08:00:51;;;;;;;39.78;18.00;;;;;;;0.92;73.84;95816.94;5043211;28;20041;-71
2021/01/20 08:03:33;;;;;;;21.33;11.68;;;;;;;0.93;73.07;95804.84;5051919;28;20044;-71
2021/01/20 08:06:01;;;;;;;15.40;9.75;;;;;;;0.96;73.38;95807.06;5056658;28;20052;-71
2021/01/20 08:08:27;;;;;;;14.18;8.75;;;;;;;0.97;73.40;95804.34;5057163;28;20393;-71
2021/01/20 08:11:00;;;;;;;12.68;8.02;;;;;;;1.01;72.79;95799.63;5056880;28;20393;-71
2021/01/20 08:13:29;;;;;;;12.45;7.10;;;;;;;1.05;73.06;95811.22;5055904;28;20037;-72
2021/01/20 08:15:56;;;;;;;13.20;8.30;;;;;;;1.06;73.04;95806.84;5056173;28;20048;-71
2021/01/20 08:18:23;;;;;;;9.73;7.13;;;;;;;1.08;73.12;95797.16;5057014;28;20036;-72
2021/01/20 08:20:50;;;;;;;11.40;7.25;;;;;;;1.11;73.09;95807.91;5056549;28;20045;-71
2021/01/20 08:23:53;;;;;;;10.52;6.93;;;;;;;1.16;71.33;95804.84;5056995;28;20124;-72
2021/01/20 08:26:24;;;;;;;12.50;7.47;;;;;;;1.18;72.20;95798.50;4955786;29;20506;-71
2021/01/20 08:29:21;;;;;;;13.50;7.18;;;;;;;1.25;71.99;95810.72;5040329;28;20052;-72
2021/01/20 08:32:09;;;;;;;10.60;7.25;;;;;;;1.30;71.80;95782.56;5036031;28;20060;-71
2021/01/20 08:34:43;;;;;;;10.93;7.13;;;;;;;1.32;72.15;95788.38;5047466;28;20045;-72
2021/01/20 08:37:10;;;;;;;;;;;;;;;1.36;71.18;95787.84;5056251;28;20045;-71
2021/01/20 08:39:50;;;;;;;12.45;7.50;;;;;;;1.38;72.16;95785.88;5056772;28;19924;-72
2021/01/20 08:42:32;;;;;;;11.35;7.53;;;;;;;1.42;71.70;95781.19;5057103;28;20033;-71
2021/01/20 08:45:05;;;;;;;13.98;7.53;;;;;;;1.46;72.05;95787.59;5055573;28;20064;-71
2021/01/20 08:47:50;;;;;;;12.23;7.10;;;;;;;1.49;71.94;95787.25;5055757;28;20370;-72
2021/01/20 08:50:38;;;;;;;11.57;7.63;;;;;;;1.54;71.91;95787.50;5048958;28;20041;-72
2021/01/20 08:53:07;;;;;;;11.55;7.30;;;;;;;1.54;71.92;95790.09;5048889;28;20044;-72
2021/01/20 08:55:35;;;;;;;11.25;7.78;;;;;;;1.57;71.96;95791.50;5055779;28;20041;-72
2021/01/20 08:58:27;;;;;;;11.90;7.88;;;;;;;1.61;70.82;95785.00;5056027;28;20029;-72
2021/01/20 09:01:23;;;;;;;12.88;8.20;;;;;;;1.62;71.22;95778.88;5056394;28;20468;-72
2021/01/20 09:04:00;;;;;;;13.13;7.43;;;;;;;1.66;71.06;95780.13;5056263;28;20040;-71
2021/01/20 09:06:27;;;;;;;14.98;7.90;;;;;;;1.70;71.44;95777.97;5054836;28;20041;-72
2021/01/20 09:08:54;;;;;;;13.60;7.90;;;;;;;1.69;71.21;95774.59;5056435;28;20048;-71
2021/01/20 09:11:22;;;;;;;11.32;7.35;;;;;;;1.70;71.12;95776.22;5055708;28;20040;-71
2021/01/20 09:13:54;;;;;;;13.40;7.75;;;;;;;1.69;70.96;95764.25;5055097;28;20202;-74
2021/01/20 09:16:30;;;;;;;12.30;7.80;;;;;;;1.69;70.37;95769.41;5044174;28;20036;-71
2021/01/20 09:18:57;;;;;;;10.90;7.43;;;;;;;1.69;71.08;95764.25;5055813;28;20033;-71
2021/01/20 09:21:23;;;;;;;12.25;7.43;;;;;;;1.74;70.88;95768.88;5055136;28;20048;-71
2021/01/20 09:23:50;;;;;;;12.20;7.13;;;;;;;1.80;70.96;95770.75;5058839;28;20045;-71
2021/01/20 09:26:17;;;;;;;13.10;7.90;;;;;;;1.86;70.90;95777.00;5055621;28;20037;-71
2021/01/20 09:28:43;;;;;;;11.38;7.35;;;;;;;1.89;70.97;95771.44;5055553;28;20033;-71
2021/01/20 09:31:10;;;;;;;13.27;7.85;;;;;;;1.95;70.66;95765.56;5054737;28;20473;-71
2021/01/20 09:33:36;;;;;;;10.23;7.40;;;;;;;1.97;70.55;95766.97;5055935;28;20044;-71
2021/01/20 09:36:03;;;;;;;11.23;7.68;;;;;;;2.00;70.17;95760.66;5055310;28;20499;-72
2021/01/20 09:38:37;;;;;;;14.20;7.25;;;;;;;2.03;70.28;95763.69;5055480;28;20045;-71
2021/01/20 09:41:21;;;;;;;12.90;7.63;;;;;;;2.08;69.48;95757.97;5054554;28;20053;-71
2021/01/20 09:43:56;;;;;;;13.00;7.80;;;;;;;2.12;69.95;95764.41;5052769;28;20059;-71
2021/01/20 09:46:31;;;;;;;12.38;7.82;;;;;;;2.16;69.59;95764.81;5055524;28;20033;-72
2021/01/20 09:49:04;;;;;;;12.45;7.40;;;;;;;2.17;69.63;95759.47;5053545;28;20382;-71
2021/01/20 09:51:37;;;;;;;10.95;7.90;;;;;;;2.22;69.62;95762.28;5053756;28;20045;-72
2021/01/20 09:54:04;;;;;;;12.45;8.63;;;;;;;2.26;69.32;95764.53;5037423;28;20049;-71
2021/01/20 09:56:32;;;;;;;12.20;7.88;;;;;;;2.30;69.38;95769.16;5055209;28;20040;-71
2021/01/20 09:58:59;;;;;;;14.10;9.13;;;;;;;2.36;69.15;95762.47;5054887;28;20512;-71
2021/01/20 10:01:31;;;;;;;14.82;8.15;;;;;;;2.39;69.02;95752.56;5054173;28;20045;-71
2021/01/20 10:04:05;;;;;;;11.93;8.00;;;;;;;2.42;68.76;95747.00;5054859;28;20045;-71
2021/01/20 10:06:32;;;;;;;15.82;8.73;;;;;;;2.48;69.20;95745.47;5053643;28;20033;-71
2021/01/20 10:09:07;;;;;;;14.80;9.02;;;;;;;2.52;68.71;95738.94;5054041;28;20052;-71
2021/01/20 10:11:49;;;;;;;16.42;9.32;;;;;;;2.56;68.31;95736.75;5036641;28;20056;-71
2021/01/20 10:14:27;;;;;;;17.27;8.65;;;;;;;2.59;67.82;95732.03;5054110;28;20052;-71
2021/01/20 10:16:55;;;;;;;14.93;9.55;;;;;;;2.65;68.81;95727.91;5052794;28;20049;-71
2021/01/20 10:19:29;;;;;;;13.25;8.02;;;;;;;2.78;68.35;95720.25;5054373;28;20060;-71
2021/01/20 10:22:09;;;;;;;15.32;9.52;;;;;;;2.83;68.15;95723.09;5053924;28;20041;-72
2021/01/20 10:24:41;;;;;;;14.15;9.20;;;;;;;2.91;68.40;95716.97;5064014;28;20497;-72
2021/01/20 10:27:12;;;;;;;12.48;8.40;;;;;;;2.93;68.16;95711.59;5073726;28;20041;-71
2021/01/20 10:29:41;;;;;;;15.50;8.77;;;;;;;2.98;68.01;95707.47;5074174;28;20377;-72
2021/01/20 10:32:07;;;;;;;13.18;8.73;;;;;;;3.01;68.08;95706.28;5074615;28;20037;-72
2021/01/20 10:34:34;;;;;;;14.70;9.20;;;;;;;3.01;67.78;95706.28;5073557;28;20079;-72
2021/01/20 10:37:00;;;;;;;11.88;8.65;;;;;;;3.01;67.79;95701.91;5074656;28;20032;-72
2021/01/20 10:39:27;;;;;;;15.23;9.68;;;;;;;3.04;67.70;95691.19;5074675;28;20059;-71
2021/01/20 10:41:53;;;;;;;12.90;9.18;;;;;;;3.08;68.02;95688.19;5073696;28;20053;-71
2021/01/20 10:44:20;;;;;;;16.48;10.27;;;;;;;3.18;68.09;95688.66;5073399;28;20045;-71
2021/01/20 10:46:48;;;;;;;14.95;9.07;;;;;;;3.28;67.64;95675.38;5074299;28;20037;-71
2021/01/20 10:49:14;;;;;;;13.63;8.68;;;;;;;3.35;67.62;95678.78;5074196;28;20029;-71
2021/01/20 10:51:41;;;;;;;14.80;8.93;;;;;;;3.40;67.34;95663.44;5073447;28;20047;-71
2021/01/20 10:54:07;;;;;;;12.95;8.95;;;;;;;3.45;67.26;95661.91;5073796;28;20043;-72
2021/01/20 10:56:33;;;;;;;12.82;7.50;;;;;;;3.48;66.84;95652.94;5074120;28;20049;-72
2021/01/20 10:59:01;;;;;;;9.45;7.20;;;;;;;3.45;66.87;95642.97;5071758;28;20049;-72
2021/01/20 11:01:27;;;;;;;13.00;8.00;;;;;;;3.49;67.00;95640.78;5073418;28;20048;-71
2021/01/20 11:03:54;;;;;;;12.13;7.50;;;;;;;3.52;66.97;95642.97;5073981;28;20043;-71
2021/01/20 11:06:20;;;;;;;9.63;7.10;;;;;;;3.56;66.69;95641.59;5074129;28;20139;-72
2021/01/20 11:08:46;;;;;;;22.83;14.05;;;;;;;3.57;66.58;95638.81;5073055;28;20064;-71
2021/01/20 11:11:13;;;;;;;10.85;6.72;;;;;;;3.60;66.39;95625.47;5073651;28;20488;-71
2021/01/20 11:13:39;;;;;;;13.55;6.90;;;;;;;3.64;66.45;95638.84;5073521;28;20052;-71
2021/01/20 11:16:06;;;;;;;8.93;6.22;;;;;;;3.64;66.24;95631.06;5073070;28;20056;-72
2021/01/20 11:18:33;;;;;;;8.18;6.30;;;;;;;3.65;66.31;95625.69;5073579;28;20036;-71
2021/01/20 11:21:00;;;;;;;9.50;6.85;;;;;;;3.67;65.92;95620.28;5073602;28;20039;-72
2021/01/20 11:23:35;;;;;;;9.60;6.15;;;;;;;3.66;66.01;95619.50;5064015;28;20049;-72
2021/01/20 11:26:01;;;;;;;;;;;;;;;3.66;64.40;95606.53;5040939;28;20048;-71
2021/01/20 11:28:28;;;;;;;10.88;6.70;;;;;;;3.68;65.93;95615.94;5053256;28;19912;-72
2021/01/20 11:30:55;;;;;;;35.88;22.33;;;;;;;3.68;65.58;95608.16;5053104;28;20060;-71
2021/01/20 11:33:21;;;;;;;15.38;10.70;;;;;;;3.68;65.90;95616.72;5052764;28;20045;-71
2021/01/20 11:35:47;;;;;;;13.07;9.02;;;;;;;3.66;65.57;95611.72;5052484;28;20466;-71
2021/01/20 11:38:14;;;;;;;11.20;7.50;;;;;;;3.64;65.38;95603.34;5053106;28;20041;-71
2021/01/20 11:40:40;;;;;;;37.05;23.30;;;;;;;3.63;65.46;95603.53;5052467;28;20053;-71
2021/01/20 11:43:06;;;;;;;15.52;12.18;;;;;;;3.62;65.48;95594.97;5052947;28;20056;-71
2021/01/20 11:45:37;;;;;;;15.23;9.90;;;;;;;3.64;65.58;95594.78;5053445;28;20465;-71
2021/01/20 11:48:05;;;;;;;15.57;10.60;;;;;;;3.63;65.51;95590.56;5052228;28;20465;-71
2021/01/20 11:50:33;;;;;;;13.10;9.55;;;;;;;3.64;65.31;95600.75;5052089;28;20496;-71